Time;durP1;ratioP1;P1;durP2;ratioP2;P2;SDS_P1;SDS_P2;PMS_P1;PMS_P2;Temp;Humidity;BMP_temperature;BMP_pressure;BME280_temperature;BME280_humidity;BME280_pressure;Samples;Min_cycle;Max_cycle;Signal;HPM_P1;HPM_P2
2022/01/10 00:01:55;;;;;;;58.83;27.00;;;;;;;-1.72;100.00;100912.88;4972919;28;20031;-95
2022/01/10 00:04:21;;;;;;;59.90;27.05;;;;;;;-1.81;100.00;100899.84;4974074;28;20213;-96
2022/01/10 00:06:46;;;;;;;48.88;26.38;;;;;;;-1.76;100.00;100912.03;4974264;28;20042;-96
2022/01/10 00:09:11;;;;;;;53.13;27.05;;;;;;;-1.71;100.00;100930.31;4975075;28;20398;-95
2022/01/10 00:11:37;;;;;;;54.10;27.75;;;;;;;-1.85;100.00;100911.13;4973485;28;20499;-95
2022/01/10 00:14:02;;;;;;;55.15;26.33;;;;;;;-1.83;100.00;100919.84;4970102;28;20464;-95
2022/01/10 00:16:27;;;;;;;59.63;27.40;;;;;;;-1.78;100.00;100941.59;4971277;28;20063;-96
2022/01/10 00:18:53;;;;;;;52.10;26.55;;;;;;;-1.96;100.00;100912.88;4970534;28;20058;-96
2022/01/10 00:21:18;;;;;;;57.92;27.65;;;;;;;-1.83;100.00;100931.16;4971805;28;20061;-95
2022/01/10 00:23:43;;;;;;;53.85;27.80;;;;;;;-1.80;100.00;100938.09;4969538;28;20031;-95
2022/01/10 00:26:09;;;;;;;64.57;27.85;;;;;;;-1.67;100.00;100962.47;4980911;28;20042;-95
2022/01/10 00:28:34;;;;;;;53.65;27.90;;;;;;;-1.66;100.00;100965.09;4971318;28;20085;-95
2022/01/10 00:30:59;;;;;;;60.95;28.40;;;;;;;-1.73;100.00;100955.50;4971317;28;20031;-95
2022/01/10 00:33:25;;;;;;;54.75;26.75;;;;;;;-1.68;100.00;100959.00;4968913;28;20086;-95
2022/01/10 00:35:50;;;;;;;54.45;28.35;;;;;;;-1.73;100.00;100950.28;4970402;28;20041;-95
2022/01/10 00:38:16;;;;;;;59.40;28.40;;;;;;;-1.78;100.00;100944.22;4971961;28;20038;-96
2022/01/10 00:40:42;;;;;;;51.85;28.55;;;;;;;-1.70;100.00;100963.34;4973167;28;20091;-96
2022/01/10 00:43:10;;;;;;;59.97;28.10;;;;;;;-1.77;100.00;100961.59;4974202;28;20019;-94
2022/01/10 00:45:36;;;;;;;54.65;27.00;;;;;;;-1.87;100.00;100949.41;4993983;28;20022;-95
2022/01/10 00:48:01;;;;;;;55.83;28.10;;;;;;;-1.79;100.00;100979.00;4979012;28;20031;-96
2022/01/10 00:50:28;;;;;;;51.53;25.98;;;;;;;-1.92;100.00;100958.94;4973069;28;20460;-95
2022/01/10 00:52:55;;;;;;;53.58;27.85;;;;;;;-1.88;100.00;100959.00;4973297;28;20033;-96
2022/01/10 00:55:20;;;;;;;59.22;27.23;;;;;;;-1.90;100.00;100971.13;4973642;28;20539;-96
2022/01/10 00:57:46;;;;;;;59.33;28.80;;;;;;;-1.92;100.00;100961.56;4972007;28;20027;-96
2022/01/10 01:00:14;;;;;;;49.55;28.15;;;;;;;-1.93;100.00;100965.03;4970928;28;20411;-95
2022/01/10 01:02:40;;;;;;;54.42;26.95;;;;;;;-1.86;100.00;100995.50;4970709;28;20031;-95
2022/01/10 01:05:09;;;;;;;63.35;27.67;;;;;;;-1.87;100.00;100996.38;4971339;28;20388;-95
2022/01/10 01:07:36;;;;;;;57.85;29.33;;;;;;;-1.87;100.00;101006.81;4972403;28;20139;-95
2022/01/10 01:12:55;;;;;;;58.97;27.20;;;;;;;-1.83;100.00;101008.56;4977132;28;20121;-95
2022/01/10 01:15:25;;;;;;;52.25;26.90;;;;;;;-1.87;100.00;101014.63;4974882;28;20037;-95
2022/01/10 01:26:04;;;;;;;55.10;25.75;;;;;;;-1.91;100.00;101028.53;4978345;28;20034;-95
2022/01/10 01:28:30;;;;;;;59.60;26.80;;;;;;;-2.02;100.00;101028.50;4986523;28;20031;-95
2022/01/10 01:30:55;;;;;;;56.47;27.27;;;;;;;-1.93;100.00;101038.94;4978287;28;20699;-96
2022/01/10 01:33:23;;;;;;;60.08;28.85;;;;;;;-1.96;100.00;101031.13;4974827;28;20073;-96
2022/01/10 01:35:48;;;;;;;56.67;28.35;;;;;;;-1.92;100.00;101037.22;4976240;28;20090;-96
2022/01/10 01:38:14;;;;;;;60.47;28.27;;;;;;;-2.04;100.00;101030.25;4975375;28;20113;-95
2022/01/10 01:40:46;;;;;;;57.72;27.67;;;;;;;-2.00;100.00;101047.66;4975732;28;20065;-94
2022/01/10 01:43:11;;;;;;;60.45;26.88;;;;;;;-1.95;100.00;101065.91;4973941;28;20461;-95
2022/01/10 01:45:45;;;;;;;52.97;27.15;;;;;;;-1.98;100.00;101071.13;4974870;28;20082;-95
2022/01/10 01:48:12;;;;;;;55.88;26.75;;;;;;;-1.98;100.00;101071.13;4975639;28;20034;-95
2022/01/10 01:50:38;;;;;;;50.22;26.35;;;;;;;-2.08;100.00;101075.44;4975713;28;20027;-95
2022/01/10 01:53:05;;;;;;;51.53;27.17;;;;;;;-2.12;100.00;101073.69;4975000;28;20039;-96
2022/01/10 01:55:30;;;;;;;56.58;26.88;;;;;;;-2.12;100.00;101089.31;4975161;28;20058;-95
2022/01/10 01:57:56;;;;;;;55.05;27.20;;;;;;;-2.07;100.00;101105.84;4975566;28;20038;-95
2022/01/10 02:00:22;;;;;;;56.00;27.25;;;;;;;-2.05;100.00;101105.00;4975784;28;20030;-94
2022/01/10 02:02:49;;;;;;;57.40;26.38;;;;;;;-2.03;100.00;101111.09;4976507;28;20035;-96
2022/01/10 02:05:15;;;;;;;61.97;27.67;;;;;;;-2.04;100.00;101095.44;4991489;28;20547;-96
2022/01/10 02:07:40;;;;;;;55.40;27.38;;;;;;;-2.02;100.00;101106.75;4980094;28;20150;-96
2022/01/10 02:10:06;;;;;;;58.42;26.80;;;;;;;-2.02;100.00;101107.63;4974967;28;20057;-95
2022/01/10 02:12:31;;;;;;;51.28;26.20;;;;;;;-2.16;100.00;101087.56;4975430;28;20396;-95
2022/01/10 02:14:57;;;;;;;57.10;27.83;;;;;;;-2.07;100.00;101105.84;4975149;28;20034;-96
2022/01/10 02:17:32;;;;;;;63.30;29.05;;;;;;;-2.07;100.00;101101.50;4975349;28;20034;-95
2022/01/10 02:19:59;;;;;;;54.45;26.10;;;;;;;-2.04;100.00;101113.69;4977057;28;20258;-95
2022/01/10 02:22:25;;;;;;;54.67;26.05;;;;;;;-2.11;100.00;101102.34;4980099;28;20027;-96
2022/01/10 02:24:51;;;;;;;74.43;35.22;;;;;;;-2.06;100.00;101112.81;4980022;28;20433;-96
2022/01/10 02:27:16;;;;;;;60.10;27.80;;;;;;;-2.09;100.00;101115.38;4975479;28;20025;-95
2022/01/10 02:29:41;;;;;;;60.67;28.00;;;;;;;-2.15;100.00;101116.25;4974263;28;20066;-95
2022/01/10 02:32:07;;;;;;;59.97;28.20;;;;;;;-2.09;100.00;101129.34;4975322;28;20032;-95
2022/01/10 02:34:32;;;;;;;57.50;28.73;;;;;;;-2.10;100.00;101134.53;4974783;28;20027;-96
2022/01/10 02:37:00;;;;;;;57.13;28.38;;;;;;;-2.18;100.00;101134.47;4991026;28;20061;-95
2022/01/10 02:39:26;;;;;;;55.90;27.65;;;;;;;-2.29;100.00;101125.72;4973284;28;20253;-95
2022/01/10 02:41:51;;;;;;;52.85;27.23;;;;;;;-2.29;100.00;101125.72;4973318;28;20034;-95
2022/01/10 02:44:17;;;;;;;55.72;27.23;;;;;;;-2.18;100.00;101152.72;4972372;28;20113;-95
2022/01/10 02:46:45;;;;;;;55.03;26.88;;;;;;;-2.26;100.00;101154.41;4976783;28;20026;-95
2022/01/10 02:49:22;;;;;;;56.85;27.58;;;;;;;-2.22;100.00;101164.00;4977325;28;20078;-96
2022/01/10 02:51:47;;;;;;;53.45;26.90;;;;;;;-2.34;100.00;101156.09;4975105;28;20082;-96
2022/01/10 02:54:14;;;;;;;53.20;26.73;;;;;;;-2.31;100.00;101177.84;4973744;28;20019;-94
2022/01/10 02:56:55;;;;;;;55.88;27.17;;;;;;;-2.31;100.00;101183.06;4980989;28;20023;-95
2022/01/10 02:59:21;;;;;;;56.53;27.55;;;;;;;-2.38;100.00;101176.09;4996908;28;20011;-94
2022/01/10 03:01:47;;;;;;;55.13;25.77;;;;;;;-2.32;100.00;101180.47;4995914;28;20025;-95
2022/01/10 03:04:15;;;;;;;55.60;26.95;;;;;;;-2.34;100.00;101187.38;4985415;28;20035;-95
2022/01/10 03:06:41;;;;;;;51.00;26.42;;;;;;;-2.32;100.00;101190.88;4986913;28;20031;-95
2022/01/10 03:09:08;;;;;;;58.55;27.02;;;;;;;-2.47;100.00;101172.50;4978521;28;20066;-95
2022/01/10 03:11:34;;;;;;;56.72;26.77;;;;;;;-2.57;100.00;101168.97;4974376;28;20027;-96
2022/01/10 03:14:00;;;;;;;55.33;26.30;;;;;;;-2.38;100.00;101206.47;4970896;28;20031;-95
2022/01/10 03:16:26;;;;;;;48.33;26.48;;;;;;;-2.39;100.00;101207.34;4973179;28;20030;-95
2022/01/10 03:18:51;;;;;;;52.47;26.35;;;;;;;-2.39;100.00;101221.22;4976602;28;20039;-96
2022/01/10 03:21:19;;;;;;;62.03;27.77;;;;;;;-2.41;100.00;101209.94;4976719;28;20023;-96
2022/01/10 03:23:45;;;;;;;52.38;26.40;;;;;;;-2.40;100.00;101223.84;4975909;28;20027;-96
2022/01/10 03:26:11;;;;;;;58.00;27.88;;;;;;;-2.46;100.00;101218.59;4980544;28;20050;-95
2022/01/10 03:28:36;;;;;;;56.85;26.88;;;;;;;-2.44;100.00;101216.84;4987469;28;20034;-96
2022/01/10 03:31:01;;;;;;;57.85;28.88;;;;;;;-2.40;100.00;101226.44;4981596;28;20035;-95
2022/01/10 03:33:27;;;;;;;51.97;27.58;;;;;;;-2.35;100.00;101233.44;4978408;28;20026;-95
2022/01/10 03:35:52;;;;;;;61.20;27.73;;;;;;;-2.22;100.00;101244.84;4978912;28;20027;-95
2022/01/10 03:38:18;;;;;;;57.80;27.67;;;;;;;-2.18;100.00;101235.31;4989977;28;20050;-95
2022/01/10 03:41:07;;;;;;;57.53;29.08;;;;;;;-2.10;100.00;101244.94;4995841;28;20033;-95
2022/01/10 03:43:32;;;;;;;57.80;27.95;;;;;;;-2.08;100.00;101243.22;4994707;28;20038;-96
2022/01/10 03:45:58;;;;;;;56.90;26.90;;;;;;;-2.07;100.00;101255.38;4994112;28;20042;-95
2022/01/10 03:48:24;;;;;;;52.13;27.73;;;;;;;-2.04;100.00;101262.38;4993951;28;20083;-96
2022/01/10 03:50:50;;;;;;;62.47;29.15;;;;;;;-1.98;100.00;101267.63;4980461;28;20077;-96
2022/01/10 03:53:16;;;;;;;59.40;27.65;;;;;;;-1.99;100.00;101267.63;4978225;28;20075;-95
2022/01/10 03:55:42;;;;;;;63.70;29.05;;;;;;;-1.95;100.00;101275.47;4983637;28;20006;-96
2022/01/10 03:58:14;;;;;;;61.20;28.48;;;;;;;-1.97;100.00;101265.88;4996792;28;20027;-96
2022/01/10 04:00:40;;;;;;;58.40;28.52;;;;;;;-1.87;100.00;101292.06;4975774;28;20035;-96
2022/01/10 04:03:07;;;;;;;65.90;30.58;;;;;;;-1.83;100.00;101295.56;4975467;28;20034;-96
2022/01/10 04:05:32;;;;;;;61.67;29.05;;;;;;;-1.90;100.00;101289.44;4980364;28;20027;-96
2022/01/10 04:07:57;;;;;;;64.53;29.48;;;;;;;-1.81;100.00;101301.66;4980134;28;20597;-96
2022/01/10 04:10:23;;;;;;;59.97;29.52;;;;;;;-1.77;100.00;101308.66;4981685;28;20027;-96
2022/01/10 04:12:48;;;;;;;62.67;29.65;;;;;;;-1.78;100.00;101307.78;4969136;28;20034;-96
2022/01/10 04:15:14;;;;;;;60.45;29.73;;;;;;;-1.80;100.00;101300.78;4974475;28;20044;-95
2022/01/10 04:17:39;;;;;;;68.75;30.52;;;;;;;-1.73;100.00;101323.47;4972944;28;20058;-96
2022/01/10 04:20:05;;;;;;;61.10;29.70;;;;;;;-1.74;100.00;101318.25;4975118;28;20035;-96
2022/01/10 04:22:31;;;;;;;55.70;29.50;;;;;;;-1.70;100.00;101314.81;4970629;28;20035;-95
2022/01/10 04:24:57;;;;;;;66.07;31.10;;;;;;;-1.73;100.00;101307.81;4972649;28;20022;-95
2022/01/10 04:27:22;;;;;;;62.55;30.90;;;;;;;-1.64;100.00;101327.88;4971622;28;20031;-95
2022/01/10 04:29:47;;;;;;;61.38;31.13;;;;;;;-1.69;100.00;101314.78;4989369;28;20055;-95
2022/01/10 04:32:13;;;;;;;72.20;32.80;;;;;;;-1.74;100.00;101303.47;4968898;28;20043;-95
2022/01/10 04:34:39;;;;;;;55.55;30.00;;;;;;;-1.61;100.00;101334.00;4968963;28;20026;-94
2022/01/10 04:37:06;;;;;;;63.90;30.58;;;;;;;-1.62;100.00;101344.44;4970976;28;20035;-95
2022/01/10 04:39:32;;;;;;;66.43;32.13;;;;;;;-1.65;100.00;101337.44;4972502;28;20026;-96
2022/01/10 04:41:59;;;;;;;58.22;31.48;;;;;;;-1.59;100.00;101358.38;4971842;28;20035;-96
2022/01/10 04:44:25;;;;;;;60.70;31.90;;;;;;;-1.58;100.00;101359.25;4973023;28;20023;-94
2022/01/10 04:46:51;;;;;;;65.50;32.10;;;;;;;-1.58;100.00;101360.13;4974074;28;20123;-96
2022/01/10 04:49:26;;;;;;;60.35;31.85;;;;;;;-1.65;100.00;101355.72;4971789;28;20053;-96
2022/01/10 04:51:52;;;;;;;58.83;30.60;;;;;;;-1.60;100.00;101367.06;4971215;28;20019;-96
2022/01/10 04:54:18;;;;;;;68.90;33.05;;;;;;;-1.54;100.00;101377.56;4972174;28;20027;-95
2022/01/10 04:56:44;;;;;;;69.78;33.45;;;;;;;-1.52;100.00;101390.63;4973993;28;20016;-96
2022/01/10 04:59:10;;;;;;;61.30;31.92;;;;;;;-1.57;100.00;101382.75;4972488;28;20034;-96
2022/01/10 05:01:35;;;;;;;68.45;33.38;;;;;;;-1.55;100.00;101387.97;4974663;28;20082;-95
2022/01/10 05:04:01;;;;;;;65.65;32.40;;;;;;;-1.55;100.00;101394.09;4976191;28;20198;-95
2022/01/10 05:06:26;;;;;;;64.65;31.70;;;;;;;-1.65;100.00;101386.16;4973108;28;20051;-95
2022/01/10 05:08:51;;;;;;;60.40;31.58;;;;;;;-1.59;100.00;101404.47;4970731;28;20031;-95
2022/01/10 05:11:18;;;;;;;67.65;33.35;;;;;;;-1.54;100.00;101401.06;4970943;28;20022;-95
2022/01/10 05:13:44;;;;;;;68.82;32.78;;;;;;;-1.47;100.00;101427.19;4970851;28;20049;-96
2022/01/10 05:16:09;;;;;;;64.85;32.55;;;;;;;-1.44;100.00;101429.84;4970939;28;20548;-95
2022/01/10 05:18:36;;;;;;;63.28;32.50;;;;;;;-1.46;100.00;101431.53;4971172;28;20031;-96
2022/01/10 05:21:01;;;;;;;69.00;32.55;;;;;;;-1.47;100.00;101433.28;4971498;28;20035;-94
2022/01/10 05:23:27;;;;;;;70.13;33.22;;;;;;;-1.43;100.00;101442.03;4970684;28;20309;-96
2022/01/10 05:25:52;;;;;;;63.65;34.13;;;;;;;-1.38;100.00;101437.69;4971893;28;20015;-95
2022/01/10 05:28:17;;;;;;;66.30;33.13;;;;;;;-1.46;100.00;101435.06;4971489;28;20059;-96
2022/01/10 05:30:43;;;;;;;68.57;32.05;;;;;;;-1.39;100.00;101449.00;4973699;28;20152;-96
2022/01/10 05:33:09;;;;;;;66.50;32.20;;;;;;;-1.33;100.00;101459.53;4971561;28;20113;-95
2022/01/10 05:35:35;;;;;;;65.97;32.25;;;;;;;-1.33;100.00;101460.41;4992545;28;20058;-95
2022/01/10 05:38:01;;;;;;;66.38;32.10;;;;;;;-1.33;100.00;101463.00;4978327;28;20035;-96
2022/01/10 05:40:27;;;;;;;68.90;31.70;;;;;;;-1.27;100.00;101464.78;4981531;28;20104;-96
2022/01/10 05:42:52;;;;;;;56.80;30.45;;;;;;;-1.33;100.00;101464.75;4981282;28;20034;-96
2022/01/10 05:45:17;;;;;;;65.80;31.23;;;;;;;-1.30;100.00;101483.03;4974721;28;20113;-95
2022/01/10 05:47:45;;;;;;;58.40;30.35;;;;;;;-1.27;100.00;101491.78;4972907;28;20034;-95
2022/01/10 05:50:13;;;;;;;63.55;31.17;;;;;;;-1.25;100.00;101491.81;4984865;28;20027;-95
2022/01/10 05:55:15;;;;;;;58.40;30.17;;;;;;;-1.53;100.00;101452.41;5024805;23;20408;-95
2022/01/10 05:57:40;;;;;;;59.45;30.55;;;;;;;-1.25;100.00;101497.03;4975091;28;20026;-95
2022/01/10 06:00:07;;;;;;;59.78;31.40;;;;;;;-1.21;100.00;101506.63;5010532;28;20034;-93
2022/01/10 06:02:32;;;;;;;59.40;29.83;;;;;;;-1.20;100.00;101510.13;4979551;28;20053;-94
2022/01/10 06:04:59;;;;;;;59.15;29.90;;;;;;;-1.26;100.00;101500.47;4995065;28;20030;-95
2022/01/10 06:07:25;;;;;;;60.03;29.38;;;;;;;-1.27;100.00;101494.38;4996033;28;20096;-95
2022/01/10 06:09:50;;;;;;;60.50;29.38;;;;;;;-1.22;100.00;101504.00;4988598;28;20471;-94
2022/01/10 06:12:15;;;;;;;59.30;29.13;;;;;;;-1.24;100.00;101501.38;5016341;28;20045;-94
2022/01/10 06:14:41;;;;;;;59.67;29.98;;;;;;;-1.15;100.00;101516.25;5035553;28;20022;-95
2022/01/10 06:17:06;;;;;;;60.53;29.27;;;;;;;-1.18;100.00;101518.81;5025990;28;20022;-94
2022/01/10 06:19:31;;;;;;;61.53;28.73;;;;;;;-1.11;100.00;101531.09;4998909;28;20027;-94
2022/01/10 06:21:56;;;;;;;62.17;28.65;;;;;;;-1.19;100.00;101517.94;5009341;28;20034;-95
2022/01/10 06:24:22;;;;;;;62.65;30.35;;;;;;;-1.14;100.00;101523.22;5009065;28;20035;-94
2022/01/10 06:26:47;;;;;;;64.45;30.80;;;;;;;-1.06;100.00;101542.44;5001168;28;20084;-94
2022/01/10 06:29:12;;;;;;;57.03;29.38;;;;;;;-1.14;100.00;101537.16;5025604;28;20022;-93
2022/01/10 06:31:38;;;;;;;58.13;28.58;;;;;;;-1.16;100.00;101535.41;5030405;28;20587;-94
2022/01/10 06:34:03;;;;;;;62.78;28.92;;;;;;;-1.10;100.00;101551.97;5009413;28;20306;-94
2022/01/10 06:36:28;;;;;;;60.70;28.92;;;;;;;-1.10;100.00;101557.22;4977444;28;20038;-91
2022/01/10 06:38:53;;;;;;;54.47;27.90;;;;;;;-1.07;100.00;101577.28;4993998;28;20158;-95
2022/01/10 06:41:19;;;;;;;59.45;29.73;;;;;;;-1.12;100.00;101572.00;4992922;28;20028;-93
2022/01/10 06:43:44;;;;;;;59.53;27.90;;;;;;;-1.09;100.00;101576.38;4997261;28;20105;-94
2022/01/10 06:46:09;;;;;;;53.70;29.15;;;;;;;-1.13;100.00;101570.28;4993423;28;20034;-92
2022/01/10 06:48:34;;;;;;;54.75;28.30;;;;;;;-1.06;100.00;101589.47;4993397;28;20030;-94
2022/01/10 06:51:00;;;;;;;58.88;28.55;;;;;;;-1.14;100.00;101570.22;4993909;28;20037;-95
2022/01/10 06:53:25;;;;;;;58.70;28.58;;;;;;;-1.08;100.00;101585.97;4995487;28;20098;-89
2022/01/10 06:55:50;;;;;;;53.78;27.85;;;;;;;-1.13;100.00;101582.44;5006634;28;20148;-87
2022/01/10 06:58:16;;;;;;;61.88;28.95;;;;;;;-1.15;100.00;101590.25;5001736;28;20038;-95
2022/01/10 07:00:42;;;;;;;59.03;27.40;;;;;;;-1.18;100.00;101595.44;5013972;28;20032;-96
2022/01/10 07:03:07;;;;;;;56.75;28.38;;;;;;;-1.18;100.00;101605.91;5011385;28;20026;-96
2022/01/10 07:05:33;;;;;;;59.20;27.90;;;;;;;-1.29;100.00;101604.94;5022737;28;20057;-95
2022/01/10 07:07:58;;;;;;;54.92;28.30;;;;;;;-1.24;100.00;101618.91;5004948;28;20010;-95
2022/01/10 07:10:23;;;;;;;52.80;28.80;;;;;;;-1.25;100.00;101632.84;4988885;28;20040;-95
2022/01/10 07:12:49;;;;;;;56.10;27.73;;;;;;;-1.27;100.00;101634.56;5011657;28;20042;-94
2022/01/10 07:15:15;;;;;;;61.58;28.90;;;;;;;-1.28;100.00;101653.69;4993209;28;20513;-95
2022/01/10 07:17:40;;;;;;;58.45;29.67;;;;;;;-1.27;100.00;101658.06;5012372;28;20018;-96
2022/01/10 07:20:06;;;;;;;60.10;28.92;;;;;;;-1.26;100.00;101662.41;5007304;28;20033;-95
2022/01/10 07:22:32;;;;;;;61.72;28.17;;;;;;;-1.30;100.00;101658.88;4998784;28;20038;-94
2022/01/10 07:24:57;;;;;;;62.67;29.02;;;;;;;-1.37;100.00;101646.66;5006029;28;20029;-95
2022/01/10 07:27:22;;;;;;;55.80;28.75;;;;;;;-1.26;100.00;101678.09;4998279;28;20030;-96
2022/01/10 07:29:50;;;;;;;55.95;28.55;;;;;;;-1.34;100.00;101671.91;4993666;28;20026;-96
2022/01/10 07:32:17;;;;;;;55.15;28.35;;;;;;;-1.29;100.00;101692.00;5011385;28;20034;-95
2022/01/10 07:34:43;;;;;;;55.60;28.83;;;;;;;-1.31;100.00;101695.44;5012836;28;20070;-96
2022/01/10 07:37:09;;;;;;;55.90;29.00;;;;;;;-1.54;100.00;101666.47;4987857;28;20032;-96
2022/01/10 07:39:34;;;;;;;57.65;28.88;;;;;;;-1.37;100.00;101693.66;5015285;28;20092;-94
2022/01/10 07:41:59;;;;;;;60.05;27.10;;;;;;;-1.37;100.00;101701.47;5003424;28;20034;-91
2022/01/10 07:44:25;;;;;;;46.85;25.80;;;;;;;-1.36;100.00;101710.19;4993156;28;20035;-93
2022/01/10 07:46:50;;;;;;;52.80;27.08;;;;;;;-1.42;100.00;101712.72;5007499;28;20060;-94
2022/01/10 07:49:15;;;;;;;52.00;25.55;;;;;;;-1.43;100.00;101718.81;5011946;28;20338;-93
2022/01/10 07:51:41;;;;;;;59.90;27.08;;;;;;;-1.43;100.00;101731.84;5007983;28;20041;-94
2022/01/10 07:54:06;;;;;;;55.85;26.50;;;;;;;-1.49;100.00;101735.28;4993743;28;20060;-94
2022/01/10 07:56:32;;;;;;;53.90;26.88;;;;;;;-1.49;100.00;101732.66;4996945;28;20034;-94
2022/01/10 07:58:57;;;;;;;59.45;26.92;;;;;;;-1.57;100.00;101727.34;4993097;28;20062;-89
2022/01/10 08:01:23;;;;;;;60.33;27.48;;;;;;;-1.55;100.00;101738.69;4992224;28;20030;-88
2022/01/10 08:03:51;;;;;;;54.22;27.05;;;;;;;-1.54;100.00;101740.44;4994714;28;20026;-88
2022/01/10 08:06:17;;;;;;;53.47;27.05;;;;;;;-1.53;100.00;101749.16;4974817;28;20033;-89
2022/01/10 08:08:42;;;;;;;52.45;25.42;;;;;;;-1.42;100.00;101759.72;4982460;28;20053;-89
2022/01/10 08:11:08;;;;;;;61.90;27.10;;;;;;;-1.39;100.00;101759.75;4975525;28;20042;-89
2022/01/10 08:13:35;;;;;;;54.13;25.92;;;;;;;-1.37;100.00;101766.78;4976217;28;20046;-93
2022/01/10 08:16:00;;;;;;;54.33;25.70;;;;;;;-1.31;100.00;101779.03;4994972;28;20045;-91
2022/01/10 08:18:26;;;;;;;51.17;24.73;;;;;;;-1.34;100.00;101778.97;5006865;28;20468;-92
2022/01/10 08:20:51;;;;;;;52.92;23.73;;;;;;;-1.28;100.00;101781.69;5006877;28;20023;-92
2022/01/10 08:23:16;;;;;;;54.35;24.42;;;;;;;-1.26;100.00;101775.59;4991708;28;20038;-92
2022/01/10 08:25:42;;;;;;;57.03;25.73;;;;;;;-1.15;100.00;101799.25;4977112;28;20026;-90
2022/01/10 08:28:07;;;;;;;58.83;26.05;;;;;;;-1.26;100.00;101780.81;4978259;28;20031;-90
2022/01/10 08:30:33;;;;;;;56.25;27.00;;;;;;;-1.14;100.00;101789.69;4993083;28;20110;-90
2022/01/10 08:32:58;;;;;;;54.60;26.73;;;;;;;-1.08;100.00;101798.47;4974391;28;20030;-91
2022/01/10 08:35:24;;;;;;;53.22;25.95;;;;;;;-0.97;100.00;101816.88;4991876;28;20057;-91
2022/01/10 08:37:50;;;;;;;61.13;26.45;;;;;;;-0.95;100.00;101811.69;4991177;28;20030;-90
2022/01/10 08:40:15;;;;;;;56.40;25.48;;;;;;;-0.82;100.00;101834.50;4972446;28;20054;-90
2022/01/10 08:42:41;;;;;;;49.50;23.30;;;;;;;-0.83;100.00;101843.22;4974637;28;20093;-90
2022/01/10 08:45:08;;;;;;;50.20;23.42;;;;;;;-0.80;100.00;101844.09;4973284;28;20480;-87
2022/01/10 08:47:34;;;;;;;44.75;22.10;;;;;;;-0.80;100.00;101851.06;4981492;28;20543;-91
2022/01/10 08:49:59;;;;;;;47.90;23.25;;;;;;;-0.90;100.00;101831.78;4993544;28;20112;-92
2022/01/10 08:52:24;;;;;;;42.50;21.70;;;;;;;-0.59;100.00;101879.19;4979385;28;20030;-92
2022/01/10 08:54:50;;;;;;;47.60;21.77;;;;;;;-0.47;100.00;101873.22;5004821;28;20050;-94
2022/01/10 08:57:16;;;;;;;40.67;19.38;;;;;;;-0.38;100.00;101886.41;5006972;28;20041;-92
2022/01/10 08:59:43;;;;;;;35.40;17.88;;;;;;;-0.45;100.00;101885.47;5016070;28;20033;-94
2022/01/10 09:02:08;;;;;;;32.88;17.35;;;;;;;-0.48;100.00;101893.28;5012237;28;20046;-93
2022/01/10 09:04:34;;;;;;;34.10;17.85;;;;;;;-0.55;100.00;101891.44;4993884;28;20026;-93
2022/01/10 09:07:02;;;;;;;33.00;16.98;;;;;;;-0.53;100.00;101903.69;4978427;28;20491;-92
2022/01/10 09:09:28;;;;;;;33.03;17.98;;;;;;;-0.46;100.00;101914.22;5009524;28;20057;-92
2022/01/10 09:11:54;;;;;;;34.75;16.60;;;;;;;-0.43;100.00;101916.88;4999678;28;20022;-93
2022/01/10 09:14:20;;;;;;;32.55;17.08;;;;;;;-0.53;100.00;101888.00;4991909;28;20033;-92
2022/01/10 09:16:46;;;;;;;34.83;17.08;;;;;;;-0.36;100.00;101900.38;4974134;28;20023;-91
2022/01/10 09:19:12;;;;;;;32.67;16.88;;;;;;;-0.26;100.00;101904.84;4988058;28;20029;-91
2022/01/10 09:21:37;;;;;;;35.72;17.88;;;;;;;-0.24;100.00;101902.25;4974914;28;20029;-89
2022/01/10 09:24:03;;;;;;;38.72;17.70;;;;;;;-0.15;100.00;101915.44;4990391;28;20030;-90
2022/01/10 09:26:29;;;;;;;33.92;17.05;;;;;;;-0.12;100.00;101916.34;4973938;28;20019;-90
2022/01/10 09:28:55;;;;;;;31.17;15.18;;;;;;;-0.04;100.00;101924.28;4973109;28;20026;-92
2022/01/10 09:31:22;;;;;;;35.13;17.30;;;;;;;-0.05;100.00;101925.13;4994463;28;20030;-90
2022/01/10 09:33:53;;;;;;;30.63;15.30;;;;;;;-0.14;100.00;101920.66;4988045;28;20057;-90
2022/01/10 09:36:19;;;;;;;29.52;14.95;;;;;;;-0.05;100.00;101941.69;4987064;28;20490;-91
2022/01/10 09:38:44;;;;;;;27.33;14.40;;;;;;;-0.11;100.00;101944.28;4979098;28;20030;-91
2022/01/10 09:41:09;;;;;;;29.05;14.57;;;;;;;-0.30;100.00;101930.09;4977309;28;20062;-91
2022/01/10 09:43:35;;;;;;;25.50;13.80;;;;;;;-0.26;100.00;101951.94;4978275;28;20038;-91
2022/01/10 09:46:01;;;;;;;27.40;13.68;;;;;;;-0.35;100.00;101925.69;4981177;28;20030;-90
2022/01/10 09:48:26;;;;;;;26.20;14.60;;;;;;;-0.43;100.00;101909.03;5007306;28;20022;-88
2022/01/10 09:50:52;;;;;;;27.73;14.77;;;;;;;-0.32;100.00;101931.81;4995191;28;20443;-89
2022/01/10 09:53:21;;;;;;;27.45;14.48;;;;;;;-0.30;100.00;101935.31;4987042;28;20034;-88
2022/01/10 09:55:48;;;;;;;32.85;14.30;;;;;;;-0.17;100.00;101946.81;4976467;28;20023;-90
2022/01/10 09:58:13;;;;;;;28.50;13.93;;;;;;;-0.15;100.00;101949.44;4984356;28;20602;-89
2022/01/10 10:00:39;;;;;;;29.90;13.75;;;;;;;-0.15;100.00;101947.72;4979247;28;20094;-90
2022/01/10 10:03:06;;;;;;;30.13;15.00;;;;;;;-0.03;100.00;101957.44;4994905;28;20116;-90
2022/01/10 10:05:31;;;;;;;26.48;14.13;;;;;;;0.13;100.00;101967.22;4999998;28;20038;-90
2022/01/10 10:07:57;;;;;;;26.70;13.10;;;;;;;0.17;100.00;101965.50;4974846;28;20030;-91
2022/01/10 10:10:22;;;;;;;27.77;14.57;;;;;;;0.28;100.00;101970.81;4974996;28;20439;-91
2022/01/10 10:12:50;;;;;;;26.60;14.00;;;;;;;0.46;100.00;101979.75;5008146;28;20065;-93
2022/01/10 10:15:19;;;;;;;27.42;14.80;;;;;;;0.59;100.00;101969.38;4996726;28;20026;-91
2022/01/10 10:17:45;;;;;;;36.72;16.15;;;;;;;0.73;100.00;101986.94;4987937;28;20026;-91
2022/01/10 10:20:22;;;;;;;35.78;15.77;;;;;;;0.87;100.00;101996.66;4988195;28;20030;-90
2022/01/10 10:22:50;;;;;;;27.15;14.65;;;;;;;0.92;100.00;102008.03;4983468;28;20504;-91
2022/01/10 10:25:16;;;;;;;31.77;14.43;;;;;;;1.01;100.00;102018.63;4985931;28;20018;-92
2022/01/10 10:27:43;;;;;;;26.30;13.70;;;;;;;1.01;100.00;102016.00;4976181;28;20038;-91
2022/01/10 10:30:28;;;;;;;26.10;13.85;;;;;;;1.03;100.00;102016.88;4994000;28;20088;-91
2022/01/10 10:33:29;;;;;;;23.38;13.25;;;;;;;1.09;100.00;102011.69;4986352;28;20034;-92
2022/01/10 10:36:07;;;;;;;28.10;12.40;;;;;;;1.08;99.68;102015.16;4905783;29;20141;-91
2022/01/10 10:38:32;;;;;;;22.02;12.50;;;;;;;1.11;99.54;102011.69;4901665;29;20027;-92
2022/01/10 10:41:03;;;;;;;24.02;12.93;;;;;;;1.21;99.37;102014.38;4912301;29;20091;-93
2022/01/10 10:43:32;;;;;;;30.42;13.95;;;;;;;1.38;99.19;102027.59;4929055;29;20047;-91
2022/01/10 10:46:02;;;;;;;26.80;14.57;;;;;;;1.47;99.03;102032.03;4910061;29;20418;-91
2022/01/10 10:48:29;;;;;;;29.33;14.40;;;;;;;1.49;98.75;102023.28;4928451;29;20453;-90
2022/01/10 10:50:58;;;;;;;25.20;13.07;;;;;;;1.56;97.69;102031.19;4898279;29;20044;-90
2022/01/10 10:53:27;;;;;;;24.13;13.05;;;;;;;1.49;97.41;102023.28;4912405;29;20111;-91
2022/01/10 10:55:52;;;;;;;27.15;13.70;;;;;;;1.54;97.74;102022.41;4911402;29;20435;-90
2022/01/10 10:58:25;;;;;;;23.33;12.20;;;;;;;1.57;98.06;102032.94;4994388;23;20072;-91
2022/01/10 11:00:50;;;;;;;25.25;13.35;;;;;;;1.49;97.90;102019.78;4971744;28;20386;-89
2022/01/10 11:03:18;;;;;;;26.80;13.57;;;;;;;1.64;98.08;102045.22;4990173;28;20037;-89
2022/01/10 11:05:46;;;;;;;25.08;13.35;;;;;;;1.60;97.63;102053.97;4972978;28;20023;-90
2022/01/10 11:08:13;;;;;;;23.90;12.27;;;;;;;1.40;97.65;102027.59;4967285;28;20038;-89
2022/01/10 11:10:38;;;;;;;25.63;13.93;;;;;;;1.60;97.87;102072.31;4971030;28;20062;-88
2022/01/10 11:13:05;;;;;;;25.35;13.75;;;;;;;1.65;98.40;102070.59;4975877;28;20428;-89